Time;durP1;ratioP1;P1;durP2;ratioP2;P2;SDS_P1;SDS_P2;PMS_P1;PMS_P2;Temp;Humidity;BMP_temperature;BMP_pressure;BME280_temperature;BME280_humidity;BME280_pressure;Samples;Min_cycle;Max_cycle;Signal;HPM_P1;HPM_P2
2021/08/30 04:17:59;;;;;;;;;;;;;;;19.21;72.56;99594.47;5941246;23;20858;-88
2021/08/30 04:20:26;;;;;;;;;;;;;;;19.09;73.76;99598.16;4872773;29;20458;-86
2021/08/30 04:22:52;;;;;;;;;;;;;;;19.11;74.76;99606.13;4859079;29;19923;-87
2021/08/30 04:25:18;;;;;;;;;;;;;;;19.16;73.81;99601.09;4860288;29;20278;-87
2021/08/30 04:27:44;;;;;;;;;;;;;;;19.02;73.54;99584.16;4860145;29;20019;-86
2021/08/30 04:30:11;;;;;;;;;;;;;;;18.97;74.47;99593.56;4860209;29;19946;-86
2021/08/30 04:32:37;;;;;;;;;;;;;;;19.08;75.59;99598.53;4843574;29;20354;-86
2021/08/30 04:35:04;;;;;;;;;;;;;;;19.15;75.51;99612.53;4858752;29;19931;-87
2021/08/30 04:37:30;;;;;;;;;;;;;;;19.18;76.75;99625.69;4860121;29;20382;-87
2021/08/30 04:39:56;;;;;;;;;;;;;;;19.22;76.15;99643.19;4859167;29;20056;-87
2021/08/30 04:42:21;;;;;;;;;;;;;;;19.21;76.08;99655.44;4858014;29;20385;-85
2021/08/30 04:44:49;;;;;;;;;;;;;;;19.16;76.30;99669.56;4874298;29;19935;-87
2021/08/30 04:47:15;;;;;;;;;;;;;;;19.16;75.77;99658.47;4869190;29;19991;-85
2021/08/30 04:49:41;;;;;;;;;;;;;;;19.15;75.67;99663.22;4877311;29;20014;-86
2021/08/30 04:52:08;;;;;;;;;;;;;;;19.12;75.04;99660.38;4867221;29;19935;-87
2021/08/30 04:54:34;;;;;;;;;;;;;;;18.89;75.30;99630.56;4859950;29;20021;-87
2021/08/30 04:57:00;;;;;;;;;;;;;;;18.72;76.90;99625.44;4868114;29;20389;-88
2021/08/30 04:59:26;;;;;;;;;;;;;;;18.62;76.82;99640.59;4860068;29;19924;-86
2021/08/30 05:01:51;;;;;;;;;;;;;;;18.65;77.36;99648.19;4855137;29;19924;-86
2021/08/30 05:04:17;;;;;;;;;;;;;;;18.72;77.06;99653.13;4851410;29;19928;-87
2021/08/30 05:06:43;;;;;;;;;;;;;;;18.68;76.14;99657.75;4861267;29;20030;-85
2021/08/30 05:09:09;;;;;;;;;;;;;;;18.65;76.69;99650.16;4862674;29;20010;-85
2021/08/30 05:11:38;;;;;;;;;;;;;;;18.58;77.11;99656.34;4882407;29;19923;-87
2021/08/30 05:14:04;;;;;;;;;;;;;;;18.55;77.00;99641.22;4868031;29;20097;-86
2021/08/30 05:16:30;;;;;;;;;;;;;;;18.43;77.32;99616.41;4865188;29;19930;-87
2021/08/30 05:18:56;;;;;;;;;;;;;;;18.35;77.78;99605.53;4858865;29;20371;-88
2021/08/30 05:21:21;;;;;;;;;;;;;;;18.23;78.07;99606.41;4869478;29;20420;-78
2021/08/30 05:23:49;;;;;;;;;;;;;;;18.13;77.52;99620.78;4869397;29;19942;-79
2021/08/30 05:26:15;;;;;;;;;;;;;;;18.11;77.67;99634.16;4865392;29;20304;-83
2021/08/30 05:28:41;;;;;;;;;;;;;;;18.12;77.69;99624.72;4870763;29;19924;-82
2021/08/30 05:31:07;;;;;;;;;;;;;;;18.16;78.06;99620.88;4860549;29;19928;-86
2021/08/30 05:33:36;;;;;;;;;;;;;;;18.16;77.72;99611.78;4882333;29;20010;-85
2021/08/30 05:36:02;;;;;;;;;;;;;;;18.20;78.07;99605.16;4867160;29;19923;-86
2021/08/30 05:38:29;;;;;;;;;;;;;;;18.22;77.90;99607.59;4846314;29;20038;-87
2021/08/30 05:40:54;;;;;;;;;;;;;;;18.22;77.61;99613.94;4862374;29;20437;-84
2021/08/30 05:43:20;;;;;;;;;;;;;;;18.24;77.93;99608.81;4862155;29;19924;-88
2021/08/30 05:45:46;;;;;;;;;;;;;;;18.28;77.88;99617.25;4881167;29;19928;-93
2021/08/30 05:48:12;;;;;;;;;;;;;;;18.33;78.04;99616.16;4876861;29;20022;-95
2021/08/30 05:50:37;;;;;;;;;;;;;;;18.45;77.55;99641.78;4869933;29;20348;-90
2021/08/30 05:53:03;;;;;;;;;;;;;;;18.50;76.97;99630.41;4867030;29;19986;-92
2021/08/30 05:55:29;;;;;;;;;;;;;;;18.55;77.58;99644.00;4865373;29;19924;-83
2021/08/30 05:57:54;;;;;;;;;;;;;;;18.58;76.86;99642.50;4862297;29;20373;-85
2021/08/30 06:00:20;;;;;;;;;;;;;;;18.64;76.60;99654.91;4865525;29;20632;-84
2021/08/30 06:02:46;;;;;;;;;;;;;;;18.71;76.74;99652.31;4862149;29;19923;-84
2021/08/30 06:05:12;;;;;;;;;;;;;;;18.67;77.08;99662.47;4876176;29;20445;-82
2021/08/30 06:07:39;;;;;;;;;;;;;;;18.70;77.52;99656.22;4859899;29;19956;-82
2021/08/30 06:10:06;;;;;;;;;;;;;;;18.72;77.45;99665.00;4861809;29;19967;-84
2021/08/30 06:12:32;;;;;;;;;;;;;;;18.81;77.11;99675.06;4857942;29;20682;-83
2021/08/30 06:14:58;;;;;;;;;;;;;;;18.83;77.15;99676.34;4855769;29;20027;-83
2021/08/30 06:17:23;;;;;;;;;;;;;;;18.88;76.96;99678.84;4855162;29;19951;-83
2021/08/30 06:19:49;;;;;;;;;;;;;;;18.85;76.58;99673.22;4856674;29;19923;-83
2021/08/30 06:22:15;;;;;;;;;;;;;;;18.91;76.47;99669.81;4855550;29;19971;-83
2021/08/30 06:24:46;;;;;;;;;;;;;;;18.93;76.13;99663.91;4860757;29;19928;-84
2021/08/30 06:27:13;;;;;;;;;;;;;;;19.00;75.69;99673.16;4857275;29;19927;-82
2021/08/30 06:29:39;;;;;;;;;;;;;;;19.09;75.97;99669.41;4866356;29;19940;-82
2021/08/30 06:32:06;;;;;;;;;;;;;;;19.22;76.75;99655.06;4858586;29;19935;-82
2021/08/30 06:34:31;;;;;;;;;;;;;;;19.37;76.49;99663.69;4859503;29;19947;-83
2021/08/30 06:36:57;;;;;;;;;;;;;;;19.48;75.80;99656.41;4861882;29;20309;-81
2021/08/30 06:39:24;;;;;;;;;;;;;;;19.62;75.27;99655.88;4860834;29;19989;-82
2021/08/30 06:41:49;;;;;;;;;;;;;;;19.78;75.60;99662.19;4861583;29;19971;-83
2021/08/30 06:44:15;;;;;;;;;;;;;;;19.90;75.61;99656.50;4860098;29;19931;-82
2021/08/30 06:46:41;;;;;;;;;;;;;;;20.00;74.46;99651.47;4861131;29;19924;-82
2021/08/30 06:49:06;;;;;;;;;;;;;;;20.10;73.83;99653.69;4860722;29;19947;-85
2021/08/30 06:51:32;;;;;;;;;;;;;;;20.14;73.24;99655.34;4876143;29;20302;-89
2021/08/30 06:53:58;;;;;;;;;;;;;;;20.24;73.28;99653.94;4861879;29;19923;-85
2021/08/30 06:56:24;;;;;;;;;;;;;;;20.32;73.26;99658.41;4876108;29;19931;-85
2021/08/30 06:58:49;;;;;;;;;;;;;;;20.41;73.82;99664.53;4861708;29;20351;-87
2021/08/30 07:01:15;;;;;;;;;;;;;;;20.43;72.42;99664.19;4861837;29;19958;-85
2021/08/30 07:03:41;;;;;;;;;;;;;;;20.51;73.81;99667.91;4875950;29;19924;-84
2021/08/30 07:06:07;;;;;;;;;;;;;;;20.56;74.27;99670.34;4861745;29;19975;-85
2021/08/30 07:08:33;;;;;;;;;;;;;;;20.51;71.66;99673.44;4861681;29;19988;-85
2021/08/30 07:10:58;;;;;;;;;;;;;;;20.52;72.03;99678.63;4861737;29;19931;-83
2021/08/30 07:13:25;;;;;;;;;;;;;;;20.46;72.82;99676.50;4875746;29;19959;-84
2021/08/30 07:15:51;;;;;;;;;;;;;;;20.52;72.63;99672.28;4875890;29;19923;-84
2021/08/30 07:18:18;;;;;;;;;;;;;;;20.59;72.39;99669.59;4861134;29;20302;-85
2021/08/30 07:20:44;;;;;;;;;;;;;;;20.68;71.79;99670.16;4875788;29;19927;-84
2021/08/30 07:23:10;;;;;;;;;;;;;;;20.77;71.05;99669.91;4861363;29;19971;-85
2021/08/30 07:25:36;;;;;;;;;;;;;;;20.79;71.69;99668.34;4875510;29;19924;-87
2021/08/30 07:28:03;;;;;;;;;;;;;;;20.90;71.38;99668.53;4861266;29;19924;-85
2021/08/30 07:30:29;;;;;;;;;;;;;;;21.00;71.68;99665.09;4861398;29;20411;-84
2021/08/30 07:32:55;;;;;;;;;;;;;;;21.04;71.19;99657.63;4875501;29;19984;-88
2021/08/30 07:35:21;;;;;;;;;;;;;;;21.20;70.87;99667.78;4861155;29;19967;-85
2021/08/30 07:37:48;;;;;;;;;;;;;;;21.27;69.60;99660.31;4860978;29;20010;-84
2021/08/30 07:40:13;;;;;;;;;;;;;;;21.27;70.52;99654.75;4861013;29;19936;-90
2021/08/30 07:42:40;;;;;;;;;;;;;;;21.27;70.88;99660.31;4860534;29;19972;-87
2021/08/30 07:45:06;;;;;;;;;;;;;;;21.24;69.20;99657.50;4859703;29;19967;-84
2021/08/30 07:47:35;;;;;;;;;;;;;;;21.19;69.96;99657.81;4860910;29;19932;-84
2021/08/30 07:50:01;;;;;;;;;;;;;;;21.14;70.86;99655.38;4861226;29;19980;-85
2021/08/30 07:52:26;;;;;;;;;;;;;;;21.09;69.38;99646.19;4861207;29;19932;-85
2021/08/30 07:54:52;;;;;;;;;;;;;;;21.13;70.37;99651.00;4860838;29;19931;-85
2021/08/30 07:57:19;;;;;;;;;;;;;;;21.15;69.71;99649.41;4860724;29;19924;-86
2021/08/30 07:59:44;;;;;;;;;;;;;;;21.16;69.94;99655.78;4874991;29;20636;-85
2021/08/30 08:02:10;;;;;;;;;;;;;;;21.27;68.82;99660.31;4853309;29;20308;-87
2021/08/30 08:04:36;;;;;;;;;;;;;;;21.40;67.93;99663.69;4850184;29;19931;-87
2021/08/30 08:07:03;;;;;;;;;;;;;;;21.50;68.26;99654.69;4854426;29;19924;-82
2021/08/30 08:09:30;;;;;;;;;;;;;;;21.56;68.48;99658.75;4853663;29;19931;-84
2021/08/30 08:11:57;;;;;;;;;;;;;;;21.66;68.75;99650.91;4853773;29;19924;-84
2021/08/30 08:14:22;;;;;;;;;;;;;;;21.77;68.48;99652.63;4859678;29;19928;-84
2021/08/30 08:16:48;;;;;;;;;;;;;;;21.88;68.03;99652.72;4853243;29;19930;-85
2021/08/30 08:19:15;;;;;;;;;;;;;;;22.02;68.06;99655.69;4859057;29;19982;-86
2021/08/30 08:21:41;;;;;;;;;;;;;;;22.18;65.54;99657.44;4858863;29;19924;-84
2021/08/30 08:24:08;;;;;;;;;;;;;;;22.31;66.08;99655.19;4858810;29;19947;-84
2021/08/30 08:26:35;;;;;;;;;;;;;;;22.42;65.64;99651.31;4858503;29;19931;-88
2021/08/30 08:29:01;;;;;;;;;;;;;;;22.51;66.21;99649.00;4873865;29;19924;-79
2021/08/30 08:31:27;;;;;;;;;;;;;;;22.54;66.15;99653.00;4858876;29;19931;-94
2021/08/30 08:33:53;;;;;;;;;;;;;;;22.51;65.58;99648.19;4872915;29;20386;-79
2021/08/30 08:36:21;;;;;;;;;;;;;;;22.50;65.87;99652.16;4858358;29;20350;-83
2021/08/30 08:38:46;;;;;;;;;;;;;;;22.56;65.38;99658.19;4858581;29;19927;-87
2021/08/30 08:41:13;;;;;;;;;;;;;;;22.55;64.36;99660.19;4872929;29;20017;-90
2021/08/30 08:43:39;;;;;;;;;;;;;;;22.56;66.17;99652.63;4858854;29;19923;-89
2021/08/30 08:46:08;;;;;;;;;;;;;;;22.57;65.94;99652.22;4832423;29;19963;-89
2021/08/30 08:48:34;;;;;;;;;;;;;;;22.55;66.17;99648.22;4856554;29;20458;-91
2021/08/30 08:51:00;;;;;;;;;;;;;;;22.51;64.93;99646.19;4855997;29;19920;-92
2021/08/30 08:53:26;;;;;;;;;;;;;;;22.43;64.83;99643.75;4870994;29;20400;-90
2021/08/30 08:55:52;;;;;;;;;;;;;;;22.34;66.15;99627.34;4855757;29;19927;-88
2021/08/30 08:58:20;;;;;;;;;;;;;;;22.51;65.12;99631.47;4856949;29;20363;-90
2021/08/30 09:00:58;;;;;;;;;;;;;;;22.60;65.26;99631.16;4839262;29;19972;-83
2021/08/30 09:03:24;;;;;;;;;;;;;;;22.69;65.00;99628.84;4855201;29;19968;-84
2021/08/30 09:06:05;;;;;;;;;;;;;;;22.71;64.82;99634.81;4855360;29;19923;-82
2021/08/30 09:08:36;;;;;;;;;;;;;;;22.80;65.86;99626.91;4854751;29;19920;-82
2021/08/30 09:11:12;;;;;;;;;;;;;;;22.91;65.02;99632.56;4854942;29;20475;-82
2021/08/30 09:13:47;;;;;;;;;;;;;;;23.02;65.50;99619.53;4854750;29;20018;-84
2021/08/30 09:16:16;;;;;;;;;;;;;;;23.01;63.25;99619.91;4850286;29;20519;-86
2021/08/30 09:18:42;;;;;;;;;;;;;;;23.16;62.85;99614.03;4843724;29;19924;-88
2021/08/30 09:21:11;;;;;;;;;;;;;;;23.41;63.42;99608.56;4836125;29;19928;-89
2021/08/30 09:23:42;;;;;;;;;;;;;;;23.63;63.86;99606.63;4834537;29;19935;-85
2021/08/30 09:26:16;;;;;;;;;;;;;;;23.82;62.61;99607.50;4835831;29;20018;-89
2021/08/30 09:28:49;;;;;;;;;;;;;;;23.92;61.55;99606.75;4835920;29;19943;-87
2021/08/30 09:31:15;;;;;;;;;;;;;;;24.01;60.74;99598.78;4835297;29;20294;-83
2021/08/30 09:33:48;;;;;;;;;;;;;;;24.11;61.36;99586.81;4834706;29;19924;-86
2021/08/30 09:36:15;;;;;;;;;;;;;;;24.05;61.85;99588.41;4834933;29;20018;-85
2021/08/30 09:38:41;;;;;;;;;;;;;;;24.15;61.53;99596.00;4849146;29;19947;-82
2021/08/30 09:41:09;;;;;;;;;;;;;;;24.21;60.91;99593.59;4849284;29;19935;-85
2021/08/30 09:43:35;;;;;;;;;;;;;;;24.23;60.58;99593.19;4852719;29;19927;-93
2021/08/30 09:46:02;;;;;;;;;;;;;;;24.29;60.39;99597.19;4852871;29;19924;-84
2021/08/30 09:48:30;;;;;;;;;;;;;;;24.38;59.68;99597.59;4851418;29;20245;-92
2021/08/30 09:51:00;;;;;;;;;;;;;;;24.48;60.24;99593.22;4852735;29;19956;-93
2021/08/30 09:53:26;;;;;;;;;;;;;;;24.68;59.98;99599.19;4852004;29;19928;-91
2021/08/30 09:55:52;;;;;;;;;;;;;;;24.78;58.35;99601.19;4852174;29;20377;-84
2021/08/30 09:58:19;;;;;;;;;;;;;;;24.89;58.76;99604.75;4851784;29;20042;-85
2021/08/30 10:00:46;;;;;;;;;;;;;;;24.98;59.27;99601.53;4851885;29;19924;-84
2021/08/30 10:03:12;;;;;;;;;;;;;;;24.99;58.99;99598.31;4850471;29;19980;-90
2021/08/30 10:05:38;;;;;;;;;;;;;;;25.01;58.81;99598.72;4851389;29;19950;-87
2021/08/30 10:08:04;;;;;;;;;;;;;;;25.00;60.46;99599.94;4853968;29;19924;-89
2021/08/30 10:10:30;;;;;;;;;;;;;;;25.02;59.00;99589.13;4854367;29;19931;-90
2021/08/30 10:13:00;;;;;;;;;;;;;;;25.03;59.67;99598.31;4853043;29;19979;-84
2021/08/30 10:15:27;;;;;;;;;;;;;;;25.05;59.20;99593.91;4853702;29;19969;-85
2021/08/30 10:17:54;;;;;;;;;;;;;;;25.17;58.74;99601.09;4853801;29;19930;-87
2021/08/30 10:20:26;;;;;;;;;;;;;;;25.27;58.19;99600.28;4871497;29;19924;-84
2021/08/30 10:22:57;;;;;;;;;;;;;;;25.36;58.41;99601.81;4871577;29;19923;-84
2021/08/30 10:25:24;;;;;;;;;;;;;;;25.40;58.84;99597.03;4872367;29;19952;-84
2021/08/30 10:28:01;;;;;;;;;;;;;;;25.44;58.42;99601.41;4856506;29;19923;-86
2021/08/30 10:30:27;;;;;;;;;;;;;;;25.47;57.69;99594.19;4868950;29;19924;-91
2021/08/30 10:32:58;;;;;;;;;;;;;;;25.48;57.68;99602.16;4852072;29;19928;-84
2021/08/30 10:35:26;;;;;;;;;;;;;;;25.59;58.61;99602.09;4851110;29;19971;-94
2021/08/30 10:37:57;;;;;;;;;;;;;;;25.69;58.01;99604.06;4850506;29;20203;-88
2021/08/30 10:40:24;;;;;;;;;;;;;;;25.71;56.97;99589.66;4836348;29;20000;-88
2021/08/30 10:43:01;;;;;;;;;;;;;;;25.86;57.20;99593.19;4877737;29;19924;-94
2021/08/30 10:45:36;;;;;;;;;;;;;;;25.91;55.92;99598.38;4863466;29;20374;-88
2021/08/30 10:48:11;;;;;;;;;;;;;;;25.91;55.50;99596.34;4850791;29;20083;-96
2021/08/30 10:50:39;;;;;;;;;;;;;;;25.97;56.45;99593.94;4850727;29;19924;-88
2021/08/30 10:53:15;;;;;;;;;;;;;;;26.02;54.94;99593.47;4855681;29;19978;-90
2021/08/30 10:55:43;;;;;;;;;;;;;;;26.10;54.01;99585.84;4862392;29;20034;-85
2021/08/30 10:58:10;;;;;;;;;;;;;;;26.14;54.58;99590.19;4860439;29;19923;-89
2021/08/30 11:00:36;;;;;;;;;;;;;;;26.14;57.17;99583.81;4880963;29;19975;-90
2021/08/30 11:03:03;;;;;;;;;;;;;;;26.22;56.39;99582.53;4866126;29;19965;-86
2021/08/30 11:05:30;;;;;;;;;;;;;;;26.19;54.96;99586.16;4867114;29;19984;-83
2021/08/30 11:07:56;;;;;;;;;;;;;;;26.29;55.29;99590.06;4867596;29;19930;-90
2021/08/30 11:10:24;;;;;;;;;;;;;;;26.36;53.05;99581.63;4868013;29;19924;-82
2021/08/30 11:12:54;;;;;;;;;;;;;;;26.55;54.99;99588.69;4866639;29;19975;-86
2021/08/30 11:15:21;;;;;;;;;;;;;;;26.73;52.73;99588.53;4866823;29;20138;-88
2021/08/30 11:17:46;;;;;;;;;;;;;;;26.87;52.41;99586.34;4865229;29;20468;-83
2021/08/30 11:20:16;;;;;;;;;;;;;;;27.04;52.27;99590.16;4874572;29;19923;-87
2021/08/30 11:22:42;;;;;;;;;;;;;;;27.06;48.13;99586.97;4868542;29;19928;-85
2021/08/30 11:25:08;;;;;;;;;;;;;;;26.97;48.63;99583.84;4861185;29;19992;-85
2021/08/30 11:27:34;;;;;;;;;;;;;;;26.82;49.02;99581.22;4851970;29;19930;-84
2021/08/30 11:30:02;;;;;;;;;;;;;;;26.69;48.12;99580.94;4866234;29;20014;-84
2021/08/30 11:32:29;;;;;;;;;;;;;;;26.77;49.89;99581.66;4866560;29;20313;-84
2021/08/30 11:34:55;;;;;;;;;;;;;;;26.81;49.19;99567.59;4861139;29;19931;-85
2021/08/30 11:37:23;;;;;;;;;;;;;;;26.92;50.31;99574.69;4860747;29;19924;-84
2021/08/30 11:39:50;;;;;;;;;;;;;;;27.04;49.96;99575.34;4865240;29;20018;-93
2021/08/30 11:42:18;;;;;;;;;;;;;;;27.13;49.86;99568.06;4861643;29;19950;-91
2021/08/30 11:44:44;;;;;;;;;;;;;;;27.23;46.88;99562.72;4852031;29;19959;-82
2021/08/30 11:47:12;;;;;;;;;;;;;;;27.24;47.41;99562.28;4859678;29;20023;-84
2021/08/30 11:49:43;;;;;;;;;;;;;;;27.19;46.72;99559.97;4874766;29;19928;-89
2021/08/30 11:52:10;;;;;;;;;;;;;;;27.18;48.43;99561.16;4860397;29;19928;-83
2021/08/30 11:54:38;;;;;;;;;;;;;;;27.04;46.42;99561.31;4860843;29;19927;-85
2021/08/30 11:57:06;;;;;;;;;;;;;;;26.86;47.81;99553.91;4861024;29;19924;-84
2021/08/30 11:59:34;;;;;;;;;;;;;;;26.73;47.49;99557.69;4860341;29;19924;-83
2021/08/30 12:02:00;;;;;;;;;;;;;;;26.73;50.12;99552.06;4860258;29;19981;-83
2021/08/30 12:04:27;;;;;;;;;;;;;;;26.79;47.28;99554.00;4860649;29;20393;-82
2021/08/30 12:06:53;;;;;;;;;;;;;;;26.99;48.85;99556.97;4859140;29;20012;-82
2021/08/30 12:09:35;;;;;;;;;;;;;;;27.16;48.25;99546.78;4860730;29;19924;-83
2021/08/30 12:12:03;;;;;;;;;;;;;;;27.30;46.92;99545.78;4842141;29;19924;-83
2021/08/30 12:14:29;;;;;;;;;;;;;;;27.43;48.90;99543.22;4849065;29;19931;-81
2021/08/30 12:16:57;;;;;;;;;;;;;;;27.46;47.75;99543.16;4860912;29;19928;-82
2021/08/30 12:19:26;;;;;;;;;;;;;;;27.38;46.02;99528.44;4860395;29;19985;-81
2021/08/30 12:21:54;;;;;;;;;;;;;;;27.40;47.30;99540.03;4860712;29;19946;-85
2021/08/30 12:24:21;;;;;;;;;;;;;;;27.44;47.30;99544.81;4859745;29;19931;-80
2021/08/30 12:26:48;;;;;;;;;;;;;;;27.52;46.51;99535.06;4860110;29;20369;-79
2021/08/30 12:29:15;;;;;;;;;;;;;;;27.55;47.46;99534.19;4859901;29;19928;-81
2021/08/30 12:31:52;;;;;;;;;;;;;;;27.50;46.70;99537.50;4860247;29;19930;-80
2021/08/30 12:34:21;;;;;;;;;;;;;;;27.45;46.72;99535.16;4846272;29;20023;-78
2021/08/30 12:36:48;;;;;;;;;;;;;;;27.48;45.15;99529.47;4858327;29;19924;-81
2021/08/30 12:39:15;;;;;;;;;;;;;;;27.55;46.64;99532.22;4858807;29;19943;-81
2021/08/30 12:41:41;;;;;;;;;;;;;;;27.59;46.67;99535.75;4859242;29;19924;-81
2021/08/30 12:44:07;;;;;;;;;;;;;;;27.60;47.52;99525.31;4876109;29;19985;-84
2021/08/30 12:46:33;;;;;;;;;;;;;;;27.61;45.62;99529.72;4859873;29;20411;-79
2021/08/30 12:48:59;;;;;;;;;;;;;;;27.60;45.71;99520.50;4860002;29;19924;-81
2021/08/30 12:51:26;;;;;;;;;;;;;;;27.67;44.89;99522.41;4859152;29;20011;-81
2021/08/30 12:53:53;;;;;;;;;;;;;;;27.69;44.42;99514.34;4859644;29;20317;-81
2021/08/30 12:56:20;;;;;;;;;;;;;;;27.77;44.93;99515.84;4859312;29;20453;-83
2021/08/30 12:58:46;;;;;;;;;;;;;;;27.83;46.29;99505.72;4859197;29;20022;-82
2021/08/30 13:01:12;;;;;;;;;;;;;;;27.83;44.95;99516.19;4859143;29;19931;-80
2021/08/30 13:03:38;;;;;;;;;;;;;;;27.87;45.66;99503.66;4859585;29;20188;-81
2021/08/30 13:06:04;;;;;;;;;;;;;;;27.91;46.32;99508.41;4859445;29;19966;-81
2021/08/30 13:08:30;;;;;;;;;;;;;;;27.97;47.99;99512.34;4859459;29;19963;-81
2021/08/30 13:10:58;;;;;;;;;;;;;;;27.97;44.92;99509.53;4859030;29;20358;-81
2021/08/30 13:13:23;;;;;;;;;;;;;;;27.98;47.47;99505.47;4859167;29;19946;-81
2021/08/30 13:15:50;;;;;;;;;;;;;;;27.96;45.96;99499.50;4858851;29;19920;-81
2021/08/30 13:18:16;;;;;;;;;;;;;;;27.96;43.25;99502.31;4859197;29;19928;-81
2021/08/30 13:20:47;;;;;;;;;;;;;;;28.02;43.80;99504.22;4859239;29;19932;-88
2021/08/30 13:23:13;;;;;;;;;;;;;;;28.03;43.20;99510.63;4858584;29;20627;-81
2021/08/30 13:25:41;;;;;;;;;;;;;;;28.04;42.86;99504.56;4859015;29;19924;-81
2021/08/30 13:28:09;;;;;;;;;;;;;;;28.10;42.58;99497.25;4858116;29;19928;-82
2021/08/30 13:30:35;;;;;;;;;;;;;;;28.14;43.50;99493.56;4858753;29;19924;-81
2021/08/30 13:33:00;;;;;;;;;;;;;;;28.03;43.10;99491.75;4858473;29;19939;-81
2021/08/30 13:35:27;;;;;;;;;;;;;;;27.98;45.52;99488.63;4858344;29;19924;-81
2021/08/30 13:37:56;;;;;;;;;;;;;;;27.93;44.08;99486.31;4859685;29;19924;-81
2021/08/30 13:40:23;;;;;;;;;;;;;;;27.93;44.84;99489.91;4858857;29;20059;-81
2021/08/30 13:42:49;;;;;;;;;;;;;;;27.93;44.88;99483.50;4862216;29;19931;-81
2021/08/30 13:45:15;;;;;;;;;;;;;;;27.91;45.72;99483.13;4862716;29;19924;-80
2021/08/30 13:47:42;;;;;;;;;;;;;;;27.73;45.93;99483.41;4863068;29;20424;-82
2021/08/30 13:50:09;;;;;;;;;;;;;;;27.59;46.59;99484.41;4862331;29;19935;-81
2021/08/30 13:52:36;;;;;;;;;;;;;;;27.52;47.68;99481.72;4862223;29;19931;-82
2021/08/30 13:55:02;;;;;;;;;;;;;;;27.59;47.52;99488.03;4862771;29;19924;-80
2021/08/30 13:57:28;;;;;;;;;;;;;;;27.64;47.91;99492.34;4863075;29;19932;-82
2021/08/30 13:59:54;;;;;;;;;;;;;;;27.57;48.43;99481.22;4877255;29;19966;-93
2021/08/30 14:02:20;;;;;;;;;;;;;;;27.34;47.23;99485.56;4863328;29;19963;-82
2021/08/30 14:04:46;;;;;;;;;;;;;;;27.08;49.03;99484.28;4862119;29;19931;-81
2021/08/30 14:07:12;;;;;;;;;;;;;;;26.86;47.34;99477.38;4862303;29;19930;-81
2021/08/30 14:09:38;;;;;;;;;;;;;;;26.73;47.46;99476.34;4861441;29;20398;-83
2021/08/30 14:12:04;;;;;;;;;;;;;;;26.66;48.39;99480.81;4861193;29;19924;-83
2021/08/30 14:14:31;;;;;;;;;;;;;;;26.56;46.86;99486.56;4862421;29;19959;-91
2021/08/30 14:16:56;;;;;;;;;;;;;;;26.50;48.27;99489.00;4862881;29;20015;-84
2021/08/30 14:19:22;;;;;;;;;;;;;;;26.44;48.32;99485.81;4862894;29;20023;-84
2021/08/30 14:21:50;;;;;;;;;;;;;;;26.39;48.24;99488.28;4862527;29;19923;-83
2021/08/30 14:24:16;;;;;;;;;;;;;;;26.32;48.92;99489.13;4863359;29;19924;-83
2021/08/30 14:26:42;;;;;;;;;;;;;;;26.24;49.06;99494.03;4862898;29;19924;-84
2021/08/30 14:29:09;;;;;;;;;;;;;;;26.14;49.54;99492.13;4862499;29;19931;-84
2021/08/30 14:31:34;;;;;;;;;;;;;;;26.08;50.20;99490.97;4862423;29;19923;-84
2021/08/30 14:34:00;;;;;;;;;;;;;;;26.04;50.23;99492.22;4861872;29;19955;-83
2021/08/30 14:36:27;;;;;;;;;;;;;;;25.93;50.92;99487.50;4868179;29;20390;-84
2021/08/30 14:38:53;;;;;;;;;;;;;;;25.82;51.18;99494.41;4861707;29;19924;-85
2021/08/30 14:41:20;;;;;;;;;;;;;;;25.71;51.38;99495.25;4853978;29;19928;-84
2021/08/30 14:43:46;;;;;;;;;;;;;;;25.67;51.77;99488.88;4861445;29;19923;-84
2021/08/30 14:46:12;;;;;;;;;;;;;;;25.61;51.75;99490.53;4852516;29;19931;-87
2021/08/30 14:48:37;;;;;;;;;;;;;;;25.59;52.71;99487.31;4860488;29;20434;-84
2021/08/30 14:51:03;;;;;;;;;;;;;;;25.50;52.88;99487.81;4853526;29;20122;-85
2021/08/30 14:53:32;;;;;;;;;;;;;;;25.38;54.24;99493.88;4860262;29;19924;-80
2021/08/30 14:55:58;;;;;;;;;;;;;;;25.25;55.87;99492.75;4852551;29;20241;-82
2021/08/30 14:58:25;;;;;;;;;;;;;;;25.15;56.41;99486.00;4860091;29;19924;-82
2021/08/30 15:00:50;;;;;;;;;;;;;;;25.08;56.81;99486.00;4852040;29;20767;-81
2021/08/30 15:03:16;;;;;;;;;;;;;;;25.08;57.41;99489.59;4860376;29;19924;-85
2021/08/30 15:05:42;;;;;;;;;;;;;;;25.12;57.17;99484.03;4855409;29;19933;-85
2021/08/30 15:08:11;;;;;;;;;;;;;;;25.07;57.52;99488.03;4856889;29;20018;-82
2021/08/30 15:10:39;;;;;;;;;;;;;;;25.00;58.32;99490.03;4857954;29;19935;-83
2021/08/30 15:13:05;;;;;;;;;;;;;;;24.84;59.85;99487.72;4859704;29;19939;-83
2021/08/30 15:15:35;;;;;;;;;;;;;;;24.67;61.02;99494.16;4871215;29;20287;-83
2021/08/30 15:18:01;;;;;;;;;;;;;;;24.43;62.08;99485.44;4854540;29;19924;-91
2021/08/30 15:20:28;;;;;;;;;;;;;;;24.33;62.72;99486.22;4858014;29;20509;-84
2021/08/30 15:22:56;;;;;;;;;;;;;;;24.24;62.83;99483.88;4849272;29;19931;-85
2021/08/30 15:25:24;;;;;;;;;;;;;;;24.11;63.42;99483.47;4858893;29;19920;-94
2021/08/30 15:27:53;;;;;;;;;;;;;;;24.08;64.09;99475.88;4850824;29;19924;-84
2021/08/30 15:30:18;;;;;;;;;;;;;;;24.05;64.32;99478.69;4857588;29;19924;-84
2021/08/30 15:32:45;;;;;;;;;;;;;;;23.96;63.94;99484.66;4849635;29;20022;-83
2021/08/30 15:35:10;;;;;;;;;;;;;;;23.88;64.49;99488.66;4856778;29;19923;-92
2021/08/30 15:37:36;;;;;;;;;;;;;;;23.78;64.64;99486.69;4848738;29;19920;-82
2021/08/30 15:40:04;;;;;;;;;;;;;;;23.66;64.86;99479.44;4858266;29;19997;-94
2021/08/30 15:42:30;;;;;;;;;;;;;;;23.54;65.83;99472.28;4862361;29;19980;-83
2021/08/30 15:44:56;;;;;;;;;;;;;;;23.50;66.21;99484.59;4870637;29;19963;-82
2021/08/30 15:47:21;;;;;;;;;;;;;;;23.38;66.42;99483.00;4847800;29;20831;-82
2021/08/30 15:49:47;;;;;;;;;;;;;;;23.33;66.91;99489.75;4855470;29;20418;-83
2021/08/30 15:52:13;;;;;;;;;;;;;;;23.32;67.13;99490.97;4862260;29;19924;-86
2021/08/30 15:54:39;;;;;;;;;;;;;;;23.29;67.01;99485.38;4853980;29;20391;-83
2021/08/30 15:57:05;;;;;;;;;;;;;;;23.23;67.49;99492.53;4847445;29;19924;-85
2021/08/30 15:59:31;;;;;;;;;;;;;;;23.13;68.20;99488.50;4871843;29;20422;-82
2021/08/30 16:01:58;;;;;;;;;;;;;;;23.17;68.07;99497.69;4860737;29;19924;-82
2021/08/30 16:04:24;;;;;;;;;;;;;;;23.10;68.15;99501.25;4859580;29;20282;-83
2021/08/30 16:06:49;;;;;;;;;;;;;;;23.03;68.51;99494.84;4860422;29;20420;-84
2021/08/30 16:09:19;;;;;;;;;;;;;;;22.96;68.52;99492.84;4860571;29;19924;-83
2021/08/30 16:11:45;;;;;;;;;;;;;;;22.94;68.63;99498.00;4860567;29;19926;-83
2021/08/30 16:14:10;;;;;;;;;;;;;;;22.93;68.98;99496.41;4858322;29;19924;-89
2021/08/30 16:16:37;;;;;;;;;;;;;;;22.90;69.14;99497.94;4855551;29;20014;-83
2021/08/30 16:19:03;;;;;;;;;;;;;;;22.85;69.09;99500.34;4855351;29;20015;-83
2021/08/30 16:21:29;;;;;;;;;;;;;;;22.82;69.45;99499.13;4857414;29;20042;-82
2021/08/30 16:23:55;;;;;;;;;;;;;;;22.81;69.58;99503.06;4860266;29;19934;-84
2021/08/30 16:26:21;;;;;;;;;;;;;;;22.81;69.64;99502.28;4856832;29;19928;-82
2021/08/30 16:28:47;;;;;;;;;;;;;;;22.81;70.04;99502.28;4858494;29;19985;-82
2021/08/30 16:31:13;;;;;;;;;;;;;;;22.84;69.55;99505.09;4860295;29;19924;-81
2021/08/30 16:33:39;;;;;;;;;;;;;;;22.76;69.67;99506.25;4860140;29;19931;-81
2021/08/30 16:36:05;;;;;;;;;;;;;;;22.71;70.18;99512.19;4855302;29;19923;-83
2021/08/30 16:38:31;;;;;;;;;;;;;;;22.66;70.37;99513.38;4854435;29;20015;-81
2021/08/30 16:40:57;;;;;;;;;;;;;;;22.58;70.77;99514.50;4860159;29;20419;-84
2021/08/30 16:43:23;;;;;;;;;;;;;;;22.50;71.53;99505.31;4859796;29;19931;-82
2021/08/30 16:45:49;;;;;;;;;;;;;;;22.40;72.18;99510.81;4860066;29;19928;-81
2021/08/30 16:48:15;;;;;;;;;;;;;;;22.28;72.70;99504.38;4862366;29;19931;-81
2021/08/30 16:50:43;;;;;;;;;;;;;;;22.23;72.76;99513.09;4858258;29;20553;-81
2021/08/30 16:53:09;;;;;;;;;;;;;;;22.18;73.26;99499.50;4860039;29;19924;-80
2021/08/30 16:55:35;;;;;;;;;;;;;;;22.14;73.52;99515.38;4861100;29;19989;-82
2021/08/30 16:58:03;;;;;;;;;;;;;;;22.12;73.47;99519.72;4858832;29;19967;-80
2021/08/30 17:00:29;;;;;;;;;;;;;;;22.08;73.57;99516.13;4858462;29;19928;-86
2021/08/30 17:02:55;;;;;;;;;;;;;;;22.11;73.39;99509.78;4850719;29;19930;-80